sensor_id;sensor_type;location;lat;lon;timestamp;P1;durP1;ratioP1;P2;durP2;ratioP2
41829;SDS011;38614;43.472;23.936;2023-03-24T00:02:27;27.20;;;13.45;;
41829;SDS011;38614;43.472;23.936;2023-03-24T00:05:19;38.40;;;15.57;;
41829;SDS011;38614;43.472;23.936;2023-03-24T00:08:08;50.35;;;18.40;;
41829;SDS011;38614;43.472;23.936;2023-03-24T00:11:00;53.00;;;22.73;;
41829;SDS011;38614;43.472;23.936;2023-03-24T00:13:49;55.55;;;22.02;;
41829;SDS011;38614;43.472;23.936;2023-03-24T00:16:37;41.35;;;17.63;;
41829;SDS011;38614;43.472;23.936;2023-03-24T00:19:29;24.92;;;14.30;;
41829;SDS011;38614;43.472;23.936;2023-03-24T00:22:16;24.10;;;12.48;;
41829;SDS011;38614;43.472;23.936;2023-03-24T00:25:08;28.35;;;13.25;;
41829;SDS011;38614;43.472;23.936;2023-03-24T00:28:00;27.88;;;13.98;;
41829;SDS011;38614;43.472;23.936;2023-03-24T00:30:50;21.15;;;12.45;;
41829;SDS011;38614;43.472;23.936;2023-03-24T00:33:38;24.17;;;12.05;;
41829;SDS011;38614;43.472;23.936;2023-03-24T00:36:26;19.27;;;11.63;;
41829;SDS011;38614;43.472;23.936;2023-03-24T00:39:16;20.25;;;10.55;;
41829;SDS011;38614;43.472;23.936;2023-03-24T00:42:07;28.88;;;14.02;;
41829;SDS011;38614;43.472;23.936;2023-03-24T00:44:55;26.40;;;12.95;;
41829;SDS011;38614;43.472;23.936;2023-03-24T00:47:43;24.50;;;12.55;;
41829;SDS011;38614;43.472;23.936;2023-03-24T00:50:31;23.17;;;11.73;;
41829;SDS011;38614;43.472;23.936;2023-03-24T00:53:20;20.90;;;12.27;;
41829;SDS011;38614;43.472;23.936;2023-03-24T00:56:09;18.23;;;10.45;;
41829;SDS011;38614;43.472;23.936;2023-03-24T00:58:57;18.63;;;11.20;;
41829;SDS011;38614;43.472;23.936;2023-03-24T01:01:48;22.48;;;11.70;;
41829;SDS011;38614;43.472;23.936;2023-03-24T01:04:39;26.67;;;12.77;;
41829;SDS011;38614;43.472;23.936;2023-03-24T01:07:28;26.15;;;14.93;;
41829;SDS011;38614;43.472;23.936;2023-03-24T01:10:19;44.63;;;19.25;;
41829;SDS011;38614;43.472;23.936;2023-03-24T01:13:12;36.95;;;17.23;;
41829;SDS011;38614;43.472;23.936;2023-03-24T01:16:00;29.33;;;14.45;;
41829;SDS011;38614;43.472;23.936;2023-03-24T01:18:49;22.50;;;11.88;;
41829;SDS011;38614;43.472;23.936;2023-03-24T01:21:38;22.63;;;11.43;;
41829;SDS011;38614;43.472;23.936;2023-03-24T01:24:28;24.65;;;11.50;;
41829;SDS011;38614;43.472;23.936;2023-03-24T01:27:17;23.40;;;11.68;;
41829;SDS011;38614;43.472;23.936;2023-03-24T01:30:05;25.98;;;11.90;;
41829;SDS011;38614;43.472;23.936;2023-03-24T01:32:54;26.38;;;11.35;;
41829;SDS011;38614;43.472;23.936;2023-03-24T01:35:42;21.77;;;11.27;;
41829;SDS011;38614;43.472;23.936;2023-03-24T01:38:30;23.80;;;13.32;;
41829;SDS011;38614;43.472;23.936;2023-03-24T01:41:18;24.40;;;13.57;;
41829;SDS011;38614;43.472;23.936;2023-03-24T01:47:20;57.80;;;38.72;;
41829;SDS011;38614;43.472;23.936;2023-03-24T01:50:08;82.60;;;55.70;;
41829;SDS011;38614;43.472;23.936;2023-03-24T01:52:56;26.95;;;17.85;;
41829;SDS011;38614;43.472;23.936;2023-03-24T01:55:45;22.80;;;10.05;;
41829;SDS011;38614;43.472;23.936;2023-03-24T01:58:39;16.45;;;9.80;;
41829;SDS011;38614;43.472;23.936;2023-03-24T02:01:43;18.60;;;8.75;;
41829;SDS011;38614;43.472;23.936;2023-03-24T02:04:56;19.42;;;9.57;;
41829;SDS011;38614;43.472;23.936;2023-03-24T02:11:02;17.00;;;10.38;;
41829;SDS011;38614;43.472;23.936;2023-03-24T02:13:59;8.27;;;5.65;;
41829;SDS011;38614;43.472;23.936;2023-03-24T02:48:40;11.80;;;6.00;;
41829;SDS011;38614;43.472;23.936;2023-03-24T02:51:52;10.75;;;6.22;;
41829;SDS011;38614;43.472;23.936;2023-03-24T02:55:03;7.72;;;4.78;;
41829;SDS011;38614;43.472;23.936;2023-03-24T03:02:00;10.65;;;4.60;;
41829;SDS011;38614;43.472;23.936;2023-03-24T03:05:06;9.15;;;5.07;;
41829;SDS011;38614;43.472;23.936;2023-03-24T03:08:00;9.63;;;4.97;;
41829;SDS011;38614;43.472;23.936;2023-03-24T03:10:50;8.02;;;5.28;;
41829;SDS011;38614;43.472;23.936;2023-03-24T03:19:47;10.45;;;5.13;;
41829;SDS011;38614;43.472;23.936;2023-03-24T03:23:16;10.65;;;5.68;;
41829;SDS011;38614;43.472;23.936;2023-03-24T03:25:59;8.90;;;4.53;;
41829;SDS011;38614;43.472;23.936;2023-03-24T03:28:52;12.52;;;4.68;;
41829;SDS011;38614;43.472;23.936;2023-03-24T03:31:48;8.93;;;5.20;;
41829;SDS011;38614;43.472;23.936;2023-03-24T03:34:58;12.05;;;5.93;;
41829;SDS011;38614;43.472;23.936;2023-03-24T03:41:23;13.25;;;6.28;;
41829;SDS011;38614;43.472;23.936;2023-03-24T03:44:11;9.63;;;6.35;;
41829;SDS011;38614;43.472;23.936;2023-03-24T03:46:59;10.43;;;5.82;;
41829;SDS011;38614;43.472;23.936;2023-03-24T03:49:57;11.13;;;6.07;;
41829;SDS011;38614;43.472;23.936;2023-03-24T03:52:45;13.30;;;8.10;;
41829;SDS011;38614;43.472;23.936;2023-03-24T03:55:33;11.82;;;7.05;;
41829;SDS011;38614;43.472;23.936;2023-03-24T03:58:23;11.55;;;6.50;;
41829;SDS011;38614;43.472;23.936;2023-03-24T04:01:15;12.43;;;7.18;;
41829;SDS011;38614;43.472;23.936;2023-03-24T04:05:23;11.73;;;8.20;;
41829;SDS011;38614;43.472;23.936;2023-03-24T04:15:08;12.18;;;7.28;;
41829;SDS011;38614;43.472;23.936;2023-03-24T04:24:52;15.48;;;8.40;;
41829;SDS011;38614;43.472;23.936;2023-03-24T04:27:55;20.63;;;9.25;;
41829;SDS011;38614;43.472;23.936;2023-03-24T04:31:05;18.55;;;10.80;;
41829;SDS011;38614;43.472;23.936;2023-03-24T04:34:19;26.92;;;11.70;;
41829;SDS011;38614;43.472;23.936;2023-03-24T04:37:13;25.90;;;13.38;;
41829;SDS011;38614;43.472;23.936;2023-03-24T04:40:21;29.58;;;14.82;;
41829;SDS011;38614;43.472;23.936;2023-03-24T04:43:14;37.63;;;16.98;;
41829;SDS011;38614;43.472;23.936;2023-03-24T04:46:06;33.92;;;15.85;;
41829;SDS011;38614;43.472;23.936;2023-03-24T04:49:10;29.27;;;14.48;;
41829;SDS011;38614;43.472;23.936;2023-03-24T04:51:58;17.65;;;9.88;;
41829;SDS011;38614;43.472;23.936;2023-03-24T04:54:50;19.35;;;10.18;;
41829;SDS011;38614;43.472;23.936;2023-03-24T04:57:41;13.95;;;8.98;;
41829;SDS011;38614;43.472;23.936;2023-03-24T05:00:29;26.42;;;16.70;;
41829;SDS011;38614;43.472;23.936;2023-03-24T05:03:19;36.20;;;26.83;;
41829;SDS011;38614;43.472;23.936;2023-03-24T05:06:11;33.65;;;22.45;;
41829;SDS011;38614;43.472;23.936;2023-03-24T05:08:59;39.80;;;20.27;;
41829;SDS011;38614;43.472;23.936;2023-03-24T05:11:49;22.65;;;12.18;;
41829;SDS011;38614;43.472;23.936;2023-03-24T05:14:38;19.77;;;10.25;;
41829;SDS011;38614;43.472;23.936;2023-03-24T05:17:26;22.02;;;10.65;;
41829;SDS011;38614;43.472;23.936;2023-03-24T05:20:14;31.73;;;13.13;;
41829;SDS011;38614;43.472;23.936;2023-03-24T05:23:07;26.85;;;12.40;;
41829;SDS011;38614;43.472;23.936;2023-03-24T05:25:55;15.57;;;9.88;;
41829;SDS011;38614;43.472;23.936;2023-03-24T05:28:45;17.00;;;8.43;;
41829;SDS011;38614;43.472;23.936;2023-03-24T05:31:32;12.35;;;8.32;;
41829;SDS011;38614;43.472;23.936;2023-03-24T05:34:33;21.67;;;9.02;;
41829;SDS011;38614;43.472;23.936;2023-03-24T05:37:32;15.15;;;7.70;;
41829;SDS011;38614;43.472;23.936;2023-03-24T05:40:22;19.20;;;8.60;;
41829;SDS011;38614;43.472;23.936;2023-03-24T05:43:36;20.50;;;10.10;;
41829;SDS011;38614;43.472;23.936;2023-03-24T05:46:32;27.30;;;11.23;;
41829;SDS011;38614;43.472;23.936;2023-03-24T05:49:22;20.35;;;11.57;;
41829;SDS011;38614;43.472;23.936;2023-03-24T05:52:12;24.35;;;12.07;;
41829;SDS011;38614;43.472;23.936;2023-03-24T05:55:05;22.52;;;11.05;;
41829;SDS011;38614;43.472;23.936;2023-03-24T05:57:54;20.92;;;11.02;;
41829;SDS011;38614;43.472;23.936;2023-03-24T06:01:05;20.77;;;10.68;;
41829;SDS011;38614;43.472;23.936;2023-03-24T06:03:58;20.80;;;10.43;;
41829;SDS011;38614;43.472;23.936;2023-03-24T06:06:46;24.00;;;13.13;;
41829;SDS011;38614;43.472;23.936;2023-03-24T06:12:32;18.60;;;9.77;;
41829;SDS011;38614;43.472;23.936;2023-03-24T06:15:22;24.15;;;11.07;;
41829;SDS011;38614;43.472;23.936;2023-03-24T06:18:21;23.67;;;12.25;;
41829;SDS011;38614;43.472;23.936;2023-03-24T06:21:10;27.17;;;11.32;;
41829;SDS011;38614;43.472;23.936;2023-03-24T06:24:00;26.77;;;11.90;;
41829;SDS011;38614;43.472;23.936;2023-03-24T06:26:51;25.23;;;11.55;;
41829;SDS011;38614;43.472;23.936;2023-03-24T06:29:39;24.67;;;11.20;;
41829;SDS011;38614;43.472;23.936;2023-03-24T06:32:32;26.77;;;13.27;;
41829;SDS011;38614;43.472;23.936;2023-03-24T06:35:19;25.38;;;12.27;;
41829;SDS011;38614;43.472;23.936;2023-03-24T06:38:17;19.65;;;12.07;;
41829;SDS011;38614;43.472;23.936;2023-03-24T06:41:05;27.52;;;11.30;;
41829;SDS011;38614;43.472;23.936;2023-03-24T06:43:53;18.20;;;10.52;;
41829;SDS011;38614;43.472;23.936;2023-03-24T06:46:41;21.42;;;10.57;;
41829;SDS011;38614;43.472;23.936;2023-03-24T06:49:29;21.15;;;8.80;;
41829;SDS011;38614;43.472;23.936;2023-03-24T06:52:18;13.93;;;7.43;;
41829;SDS011;38614;43.472;23.936;2023-03-24T06:55:06;14.13;;;7.20;;
41829;SDS011;38614;43.472;23.936;2023-03-24T06:57:54;9.95;;;6.55;;
41829;SDS011;38614;43.472;23.936;2023-03-24T07:01:15;9.48;;;6.15;;
41829;SDS011;38614;43.472;23.936;2023-03-24T07:04:15;10.32;;;6.53;;
41829;SDS011;38614;43.472;23.936;2023-03-24T07:07:25;11.02;;;6.63;;
41829;SDS011;38614;43.472;23.936;2023-03-24T07:10:52;9.27;;;6.20;;
41829;SDS011;38614;43.472;23.936;2023-03-24T07:13:40;7.38;;;5.45;;
41829;SDS011;38614;43.472;23.936;2023-03-24T07:16:28;9.52;;;6.28;;
41829;SDS011;38614;43.472;23.936;2023-03-24T07:19:40;10.95;;;6.47;;
41829;SDS011;38614;43.472;23.936;2023-03-24T07:22:47;10.00;;;6.70;;
41829;SDS011;38614;43.472;23.936;2023-03-24T07:25:52;11.55;;;6.97;;
41829;SDS011;38614;43.472;23.936;2023-03-24T07:29:00;9.40;;;6.47;;
41829;SDS011;38614;43.472;23.936;2023-03-24T07:31:55;8.55;;;5.65;;
41829;SDS011;38614;43.472;23.936;2023-03-24T07:34:45;7.50;;;5.30;;
41829;SDS011;38614;43.472;23.936;2023-03-24T07:37:35;13.07;;;6.15;;
41829;SDS011;38614;43.472;23.936;2023-03-24T07:40:23;8.77;;;6.22;;
41829;SDS011;38614;43.472;23.936;2023-03-24T07:43:12;8.65;;;5.65;;
41829;SDS011;38614;43.472;23.936;2023-03-24T07:46:14;9.55;;;5.88;;
41829;SDS011;38614;43.472;23.936;2023-03-24T07:49:03;11.82;;;5.70;;
41829;SDS011;38614;43.472;23.936;2023-03-24T07:52:12;12.65;;;6.22;;
41829;SDS011;38614;43.472;23.936;2023-03-24T07:55:03;11.60;;;6.53;;
41829;SDS011;38614;43.472;23.936;2023-03-24T07:58:16;7.45;;;5.47;;
41829;SDS011;38614;43.472;23.936;2023-03-24T08:01:20;8.10;;;6.10;;
41829;SDS011;38614;43.472;23.936;2023-03-24T08:04:11;7.23;;;5.70;;
41829;SDS011;38614;43.472;23.936;2023-03-24T08:07:18;11.32;;;7.32;;
41829;SDS011;38614;43.472;23.936;2023-03-24T08:10:06;8.18;;;5.78;;
41829;SDS011;38614;43.472;23.936;2023-03-24T08:12:57;6.85;;;5.20;;
41829;SDS011;38614;43.472;23.936;2023-03-24T08:15:47;7.55;;;5.18;;
41829;SDS011;38614;43.472;23.936;2023-03-24T08:18:35;13.43;;;5.55;;
41829;SDS011;38614;43.472;23.936;2023-03-24T08:21:23;8.43;;;5.07;;
41829;SDS011;38614;43.472;23.936;2023-03-24T08:24:11;6.07;;;4.88;;
41829;SDS011;38614;43.472;23.936;2023-03-24T08:26:59;10.05;;;5.57;;
41829;SDS011;38614;43.472;23.936;2023-03-24T08:29:52;6.30;;;5.07;;
41829;SDS011;38614;43.472;23.936;2023-03-24T08:32:44;8.25;;;5.82;;
41829;SDS011;38614;43.472;23.936;2023-03-24T08:35:33;8.57;;;5.20;;
41829;SDS011;38614;43.472;23.936;2023-03-24T08:38:26;9.07;;;5.47;;
41829;SDS011;38614;43.472;23.936;2023-03-24T08:41:17;6.97;;;4.88;;
41829;SDS011;38614;43.472;23.936;2023-03-24T08:44:05;4.97;;;4.50;;
41829;SDS011;38614;43.472;23.936;2023-03-24T08:46:53;5.78;;;4.80;;
41829;SDS011;38614;43.472;23.936;2023-03-24T08:49:41;10.27;;;6.07;;
41829;SDS011;38614;43.472;23.936;2023-03-24T08:52:29;11.05;;;7.25;;
41829;SDS011;38614;43.472;23.936;2023-03-24T08:55:17;11.43;;;6.40;;
41829;SDS011;38614;43.472;23.936;2023-03-24T08:58:06;13.95;;;5.85;;
41829;SDS011;38614;43.472;23.936;2023-03-24T09:00:54;14.30;;;7.97;;
41829;SDS011;38614;43.472;23.936;2023-03-24T09:03:42;13.05;;;7.28;;
41829;SDS011;38614;43.472;23.936;2023-03-24T09:06:31;19.33;;;8.30;;
41829;SDS011;38614;43.472;23.936;2023-03-24T09:09:19;14.55;;;7.13;;
41829;SDS011;38614;43.472;23.936;2023-03-24T09:12:07;14.70;;;7.93;;
41829;SDS011;38614;43.472;23.936;2023-03-24T09:14:57;11.18;;;6.75;;
41829;SDS011;38614;43.472;23.936;2023-03-24T09:17:45;11.38;;;6.82;;
41829;SDS011;38614;43.472;23.936;2023-03-24T09:20:34;11.57;;;6.25;;
41829;SDS011;38614;43.472;23.936;2023-03-24T09:23:22;13.80;;;6.72;;
41829;SDS011;38614;43.472;23.936;2023-03-24T09:26:10;11.93;;;6.55;;
41829;SDS011;38614;43.472;23.936;2023-03-24T09:28:58;12.90;;;6.30;;
41829;SDS011;38614;43.472;23.936;2023-03-24T09:31:46;6.50;;;4.82;;
41829;SDS011;38614;43.472;23.936;2023-03-24T09:34:34;6.30;;;4.80;;
41829;SDS011;38614;43.472;23.936;2023-03-24T09:37:24;7.60;;;4.55;;
41829;SDS011;38614;43.472;23.936;2023-03-24T09:40:25;5.95;;;3.90;;
41829;SDS011;38614;43.472;23.936;2023-03-24T09:46:30;7.53;;;4.45;;
41829;SDS011;38614;43.472;23.936;2023-03-24T09:49:27;5.13;;;3.47;;
41829;SDS011;38614;43.472;23.936;2023-03-24T09:52:18;6.57;;;4.05;;
41829;SDS011;38614;43.472;23.936;2023-03-24T09:55:11;4.13;;;3.42;;
41829;SDS011;38614;43.472;23.936;2023-03-24T09:58:05;14.90;;;4.35;;
41829;SDS011;38614;43.472;23.936;2023-03-24T10:00:55;12.43;;;3.90;;
41829;SDS011;38614;43.472;23.936;2023-03-24T10:03:44;6.60;;;4.32;;
41829;SDS011;38614;43.472;23.936;2023-03-24T10:06:39;4.10;;;3.70;;
41829;SDS011;38614;43.472;23.936;2023-03-24T10:09:29;4.85;;;3.42;;
41829;SDS011;38614;43.472;23.936;2023-03-24T10:15:41;3.88;;;3.47;;
41829;SDS011;38614;43.472;23.936;2023-03-24T10:18:35;5.45;;;3.75;;
41829;SDS011;38614;43.472;23.936;2023-03-24T10:21:31;5.00;;;3.05;;
41829;SDS011;38614;43.472;23.936;2023-03-24T10:24:35;5.15;;;2.70;;
41829;SDS011;38614;43.472;23.936;2023-03-24T10:27:35;2.63;;;2.42;;
41829;SDS011;38614;43.472;23.936;2023-03-24T10:30:29;3.22;;;2.92;;
41829;SDS011;38614;43.472;23.936;2023-03-24T10:33:20;4.43;;;2.78;;
41829;SDS011;38614;43.472;23.936;2023-03-24T10:36:17;4.57;;;3.08;;
41829;SDS011;38614;43.472;23.936;2023-03-24T10:39:09;15.02;;;3.40;;
41829;SDS011;38614;43.472;23.936;2023-03-24T10:42:10;6.82;;;2.40;;
41829;SDS011;38614;43.472;23.936;2023-03-24T10:45:04;2.50;;;2.10;;
41829;SDS011;38614;43.472;23.936;2023-03-24T10:47:58;3.50;;;2.40;;
41829;SDS011;38614;43.472;23.936;2023-03-24T10:50:47;2.20;;;2.10;;
41829;SDS011;38614;43.472;23.936;2023-03-24T10:53:35;3.33;;;1.90;;
41829;SDS011;38614;43.472;23.936;2023-03-24T10:56:37;2.92;;;1.98;;
41829;SDS011;38614;43.472;23.936;2023-03-24T10:59:44;2.28;;;1.30;;
41829;SDS011;38614;43.472;23.936;2023-03-24T11:02:44;2.10;;;1.40;;
41829;SDS011;38614;43.472;23.936;2023-03-24T11:05:57;2.75;;;1.38;;
41829;SDS011;38614;43.472;23.936;2023-03-24T11:08:47;2.72;;;0.98;;
41829;SDS011;38614;43.472;23.936;2023-03-24T11:12:01;2.45;;;1.30;;
41829;SDS011;38614;43.472;23.936;2023-03-24T11:14:50;1.92;;;1.70;;
41829;SDS011;38614;43.472;23.936;2023-03-24T11:17:40;4.20;;;1.27;;
41829;SDS011;38614;43.472;23.936;2023-03-24T11:20:32;3.95;;;0.93;;
41829;SDS011;38614;43.472;23.936;2023-03-24T11:23:29;0.93;;;0.93;;
41829;SDS011;38614;43.472;23.936;2023-03-24T11:26:19;2.03;;;1.02;;
41829;SDS011;38614;43.472;23.936;2023-03-24T11:29:13;2.08;;;1.45;;
41829;SDS011;38614;43.472;23.936;2023-03-24T11:32:10;3.42;;;0.85;;
41829;SDS011;38614;43.472;23.936;2023-03-24T11:35:07;2.67;;;1.20;;
41829;SDS011;38614;43.472;23.936;2023-03-24T11:38:06;5.10;;;1.98;;
41829;SDS011;38614;43.472;23.936;2023-03-24T11:40:57;1.80;;;1.40;;
41829;SDS011;38614;43.472;23.936;2023-03-24T11:44:05;1.55;;;1.23;;
41829;SDS011;38614;43.472;23.936;2023-03-24T11:53:12;2.83;;;1.52;;
41829;SDS011;38614;43.472;23.936;2023-03-24T11:56:40;10.87;;;1.53;;
41829;SDS011;38614;43.472;23.936;2023-03-24T12:05:36;1.95;;;1.17;;
41829;SDS011;38614;43.472;23.936;2023-03-24T12:08:34;2.47;;;0.98;;
41829;SDS011;38614;43.472;23.936;2023-03-24T12:14:42;1.83;;;1.08;;
41829;SDS011;38614;43.472;23.936;2023-03-24T12:17:39;1.35;;;1.00;;
41829;SDS011;38614;43.472;23.936;2023-03-24T12:24:27;1.67;;;1.02;;
41829;SDS011;38614;43.472;23.936;2023-03-24T12:30:48;2.83;;;0.77;;
41829;SDS011;38614;43.472;23.936;2023-03-24T12:46:46;1.77;;;0.98;;
41829;SDS011;38614;43.472;23.936;2023-03-24T12:55:58;0.77;;;0.50;;
41829;SDS011;38614;43.472;23.936;2023-03-24T13:04:59;1.75;;;0.70;;
41829;SDS011;38614;43.472;23.936;2023-03-24T13:07:54;2.67;;;0.60;;
41829;SDS011;38614;43.472;23.936;2023-03-24T13:10:45;0.95;;;0.50;;
41829;SDS011;38614;43.472;23.936;2023-03-24T13:13:39;1.35;;;0.57;;
41829;SDS011;38614;43.472;23.936;2023-03-24T13:16:30;3.33;;;0.50;;
41829;SDS011;38614;43.472;23.936;2023-03-24T13:19:23;2.58;;;0.43;;
41829;SDS011;38614;43.472;23.936;2023-03-24T13:22:14;3.83;;;0.57;;
41829;SDS011;38614;43.472;23.936;2023-03-24T13:25:07;1.95;;;0.47;;
41829;SDS011;38614;43.472;23.936;2023-03-24T13:28:10;1.02;;;0.40;;
41829;SDS011;38614;43.472;23.936;2023-03-24T13:31:04;1.08;;;0.52;;
41829;SDS011;38614;43.472;23.936;2023-03-24T13:33:55;0.95;;;0.60;;
41829;SDS011;38614;43.472;23.936;2023-03-24T13:36:51;5.03;;;0.47;;
41829;SDS011;38614;43.472;23.936;2023-03-24T13:39:54;2.15;;;0.70;;
41829;SDS011;38614;43.472;23.936;2023-03-24T13:42:48;2.78;;;0.50;;
41829;SDS011;38614;43.472;23.936;2023-03-24T13:46:00;0.52;;;0.43;;
41829;SDS011;38614;43.472;23.936;2023-03-24T13:48:54;0.60;;;0.52;;
41829;SDS011;38614;43.472;23.936;2023-03-24T13:51:43;0.43;;;0.43;;
41829;SDS011;38614;43.472;23.936;2023-03-24T13:54:34;1.15;;;0.40;;
41829;SDS011;38614;43.472;23.936;2023-03-24T13:57:24;2.60;;;0.57;;
41829;SDS011;38614;43.472;23.936;2023-03-24T14:00:17;2.97;;;0.85;;
41829;SDS011;38614;43.472;23.936;2023-03-24T14:03:13;2.85;;;0.50;;
41829;SDS011;38614;43.472;23.936;2023-03-24T14:06:17;3.13;;;0.40;;
41829;SDS011;38614;43.472;23.936;2023-03-24T14:09:31;3.25;;;0.73;;
41829;SDS011;38614;43.472;23.936;2023-03-24T14:12:19;2.25;;;0.70;;
41829;SDS011;38614;43.472;23.936;2023-03-24T14:15:11;1.20;;;0.32;;
41829;SDS011;38614;43.472;23.936;2023-03-24T14:18:14;2.92;;;0.80;;
41829;SDS011;38614;43.472;23.936;2023-03-24T14:21:11;3.05;;;0.98;;
41829;SDS011;38614;43.472;23.936;2023-03-24T14:23:59;0.70;;;0.60;;
41829;SDS011;38614;43.472;23.936;2023-03-24T14:26:50;1.00;;;0.50;;
41829;SDS011;38614;43.472;23.936;2023-03-24T14:29:40;0.88;;;0.80;;
41829;SDS011;38614;43.472;23.936;2023-03-24T14:32:46;0.65;;;0.55;;
41829;SDS011;38614;43.472;23.936;2023-03-24T14:36:19;0.60;;;0.47;;
41829;SDS011;38614;43.472;23.936;2023-03-24T14:38:52;0.38;;;0.20;;
41829;SDS011;38614;43.472;23.936;2023-03-24T14:41:40;0.60;;;0.60;;
41829;SDS011;38614;43.472;23.936;2023-03-24T14:47:42;1.10;;;0.60;;
41829;SDS011;38614;43.472;23.936;2023-03-24T14:50:31;0.50;;;0.50;;
41829;SDS011;38614;43.472;23.936;2023-03-24T14:53:20;6.10;;;0.85;;
41829;SDS011;38614;43.472;23.936;2023-03-24T14:56:12;6.93;;;0.95;;
41829;SDS011;38614;43.472;23.936;2023-03-24T14:59:04;5.90;;;2.33;;
41829;SDS011;38614;43.472;23.936;2023-03-24T15:08:19;3.40;;;0.90;;
41829;SDS011;38614;43.472;23.936;2023-03-24T15:11:09;4.13;;;1.95;;
41829;SDS011;38614;43.472;23.936;2023-03-24T15:13:58;3.75;;;2.00;;
41829;SDS011;38614;43.472;23.936;2023-03-24T15:16:52;13.55;;;6.15;;
41829;SDS011;38614;43.472;23.936;2023-03-24T15:19:53;7.78;;;3.90;;
41829;SDS011;38614;43.472;23.936;2023-03-24T15:22:41;14.00;;;4.68;;
41829;SDS011;38614;43.472;23.936;2023-03-24T15:25:29;4.78;;;4.35;;
41829;SDS011;38614;43.472;23.936;2023-03-24T15:28:18;2.95;;;2.28;;
41829;SDS011;38614;43.472;23.936;2023-03-24T15:31:11;1.70;;;1.60;;
41829;SDS011;38614;43.472;23.936;2023-03-24T15:34:48;3.15;;;1.48;;
41829;SDS011;38614;43.472;23.936;2023-03-24T15:37:40;1.15;;;0.88;;
41829;SDS011;38614;43.472;23.936;2023-03-24T15:40:35;1.25;;;1.15;;
41829;SDS011;38614;43.472;23.936;2023-03-24T15:43:25;7.25;;;2.00;;
41829;SDS011;38614;43.472;23.936;2023-03-24T15:46:26;2.72;;;1.50;;
41829;SDS011;38614;43.472;23.936;2023-03-24T15:49:18;5.35;;;2.47;;
41829;SDS011;38614;43.472;23.936;2023-03-24T15:58:23;9.50;;;2.35;;
41829;SDS011;38614;43.472;23.936;2023-03-24T16:01:15;6.47;;;2.30;;
41829;SDS011;38614;43.472;23.936;2023-03-24T16:04:10;6.82;;;2.25;;
41829;SDS011;38614;43.472;23.936;2023-03-24T16:07:01;3.58;;;2.05;;
41829;SDS011;38614;43.472;23.936;2023-03-24T16:09:55;4.22;;;2.30;;
41829;SDS011;38614;43.472;23.936;2023-03-24T16:12:51;5.80;;;2.25;;
41829;SDS011;38614;43.472;23.936;2023-03-24T16:15:46;8.40;;;2.75;;
41829;SDS011;38614;43.472;23.936;2023-03-24T16:18:49;6.53;;;3.03;;
41829;SDS011;38614;43.472;23.936;2023-03-24T16:21:37;6.60;;;2.40;;
41829;SDS011;38614;43.472;23.936;2023-03-24T16:24:28;11.68;;;3.30;;
41829;SDS011;38614;43.472;23.936;2023-03-24T16:27:16;6.10;;;3.05;;
41829;SDS011;38614;43.472;23.936;2023-03-24T16:30:39;17.80;;;5.72;;
41829;SDS011;38614;43.472;23.936;2023-03-24T16:33:23;26.55;;;5.80;;
41829;SDS011;38614;43.472;23.936;2023-03-24T16:36:19;25.17;;;7.45;;
41829;SDS011;38614;43.472;23.936;2023-03-24T16:39:18;58.05;;;18.52;;
41829;SDS011;38614;43.472;23.936;2023-03-24T16:42:10;55.30;;;16.63;;
41829;SDS011;38614;43.472;23.936;2023-03-24T16:44:58;51.50;;;17.25;;
41829;SDS011;38614;43.472;23.936;2023-03-24T16:47:46;56.60;;;19.10;;
41829;SDS011;38614;43.472;23.936;2023-03-24T16:50:39;80.15;;;26.73;;
41829;SDS011;38614;43.472;23.936;2023-03-24T16:53:31;56.88;;;21.67;;
41829;SDS011;38614;43.472;23.936;2023-03-24T16:56:20;37.85;;;13.90;;
41829;SDS011;38614;43.472;23.936;2023-03-24T16:59:09;52.55;;;15.13;;
41829;SDS011;38614;43.472;23.936;2023-03-24T17:01:59;58.13;;;25.45;;
41829;SDS011;38614;43.472;23.936;2023-03-24T17:04:52;80.22;;;35.90;;
41829;SDS011;38614;43.472;23.936;2023-03-24T17:07:41;281.42;;;128.90;;
41829;SDS011;38614;43.472;23.936;2023-03-24T17:10:28;365.02;;;178.40;;
41829;SDS011;38614;43.472;23.936;2023-03-24T17:13:18;201.10;;;95.68;;
41829;SDS011;38614;43.472;23.936;2023-03-24T17:16:08;763.75;;;442.95;;
41829;SDS011;38614;43.472;23.936;2023-03-24T17:18:56;429.83;;;225.30;;
41829;SDS011;38614;43.472;23.936;2023-03-24T17:21:53;265.13;;;121.55;;
41829;SDS011;38614;43.472;23.936;2023-03-24T17:24:49;221.60;;;100.55;;
41829;SDS011;38614;43.472;23.936;2023-03-24T17:27:43;101.13;;;45.40;;
41829;SDS011;38614;43.472;23.936;2023-03-24T17:30:32;95.88;;;45.75;;
41829;SDS011;38614;43.472;23.936;2023-03-24T17:33:20;78.40;;;38.30;;
41829;SDS011;38614;43.472;23.936;2023-03-24T17:36:12;61.47;;;31.63;;
41829;SDS011;38614;43.472;23.936;2023-03-24T17:39:03;63.47;;;31.58;;
41829;SDS011;38614;43.472;23.936;2023-03-24T17:41:51;69.82;;;35.42;;
41829;SDS011;38614;43.472;23.936;2023-03-24T17:44:43;74.30;;;35.35;;
41829;SDS011;38614;43.472;23.936;2023-03-24T17:47:33;120.22;;;53.70;;
41829;SDS011;38614;43.472;23.936;2023-03-24T17:50:21;114.40;;;53.08;;
41829;SDS011;38614;43.472;23.936;2023-03-24T17:53:09;106.80;;;48.28;;
41829;SDS011;38614;43.472;23.936;2023-03-24T17:56:00;93.82;;;42.30;;
41829;SDS011;38614;43.472;23.936;2023-03-24T17:58:54;94.25;;;42.97;;
41829;SDS011;38614;43.472;23.936;2023-03-24T18:01:44;90.40;;;43.80;;
41829;SDS011;38614;43.472;23.936;2023-03-24T18:04:33;102.40;;;49.15;;
41829;SDS011;38614;43.472;23.936;2023-03-24T18:07:21;78.55;;;33.63;;
41829;SDS011;38614;43.472;23.936;2023-03-24T18:10:09;70.28;;;28.45;;
41829;SDS011;38614;43.472;23.936;2023-03-24T18:12:57;56.75;;;26.40;;
41829;SDS011;38614;43.472;23.936;2023-03-24T18:15:48;67.13;;;31.17;;
41829;SDS011;38614;43.472;23.936;2023-03-24T18:18:36;70.85;;;35.53;;
41829;SDS011;38614;43.472;23.936;2023-03-24T18:21:25;74.68;;;35.58;;
41829;SDS011;38614;43.472;23.936;2023-03-24T18:24:12;71.88;;;34.70;;
41829;SDS011;38614;43.472;23.936;2023-03-24T18:27:00;63.90;;;26.55;;
41829;SDS011;38614;43.472;23.936;2023-03-24T18:29:49;70.00;;;27.45;;
41829;SDS011;38614;43.472;23.936;2023-03-24T18:32:37;62.53;;;28.25;;
41829;SDS011;38614;43.472;23.936;2023-03-24T18:35:26;69.82;;;28.35;;
41829;SDS011;38614;43.472;23.936;2023-03-24T18:38:14;72.75;;;30.73;;
41829;SDS011;38614;43.472;23.936;2023-03-24T18:41:09;72.47;;;33.60;;
41829;SDS011;38614;43.472;23.936;2023-03-24T18:43:59;68.97;;;30.60;;
41829;SDS011;38614;43.472;23.936;2023-03-24T18:46:49;58.92;;;30.15;;
41829;SDS011;38614;43.472;23.936;2023-03-24T18:49:40;68.00;;;31.75;;
41829;SDS011;38614;43.472;23.936;2023-03-24T18:52:31;76.20;;;35.40;;
41829;SDS011;38614;43.472;23.936;2023-03-24T18:55:19;68.78;;;32.35;;
41829;SDS011;38614;43.472;23.936;2023-03-24T18:58:11;106.03;;;45.83;;
41829;SDS011;38614;43.472;23.936;2023-03-24T19:01:05;119.15;;;53.30;;
41829;SDS011;38614;43.472;23.936;2023-03-24T19:03:58;124.85;;;50.50;;
41829;SDS011;38614;43.472;23.936;2023-03-24T19:06:46;114.15;;;49.78;;
41829;SDS011;38614;43.472;23.936;2023-03-24T19:09:36;113.90;;;48.80;;
41829;SDS011;38614;43.472;23.936;2023-03-24T19:12:24;112.88;;;48.75;;
41829;SDS011;38614;43.472;23.936;2023-03-24T19:15:12;131.10;;;58.50;;